createdAt,value
2022-09-15T00:01:12.812Z,20.61
2022-09-15T00:04:00.380Z,20.40
2022-09-15T00:06:44.943Z,20.51
2022-09-15T00:09:33.757Z,20.42
2022-09-15T00:12:17.126Z,20.39
2022-09-15T00:15:06.825Z,20.40
2022-09-15T00:17:49.702Z,20.34
2022-09-15T00:20:37.033Z,20.42
2022-09-15T00:23:18.835Z,20.44
2022-09-15T00:26:06.930Z,20.45
2022-09-15T00:28:49.390Z,20.36
2022-09-15T00:31:36.718Z,20.33
2022-09-15T00:34:19.848Z,20.32
2022-09-15T00:37:10.095Z,20.13
2022-09-15T00:39:52.795Z,20.25
2022-09-15T00:42:40.731Z,20.19
2022-09-15T00:45:23.920Z,20.29
2022-09-15T00:48:21.738Z,20.14
2022-09-15T00:51:07.156Z,20.18
2022-09-15T00:54:00.116Z,20.23
2022-09-15T00:56:42.864Z,20.12
2022-09-15T00:59:37.484Z,20.00
2022-09-15T01:02:34.364Z,20.03
2022-09-15T01:05:24.851Z,19.81
2022-09-15T01:08:28.849Z,19.83
2022-09-15T01:11:17.540Z,19.93
2022-09-15T01:14:05.771Z,19.90
2022-09-15T01:17:18.098Z,19.82
2022-09-15T01:20:05.855Z,19.79
2022-09-15T01:23:13.104Z,19.76
2022-09-15T01:26:42.398Z,19.70
2022-09-15T01:29:44.746Z,19.69
2022-09-15T01:33:01.431Z,19.70
2022-09-15T01:35:50.763Z,19.76
2022-09-15T01:39:08.016Z,19.81
2022-09-15T01:41:56.037Z,19.85
2022-09-15T01:45:00.083Z,19.82
2022-09-15T01:47:43.146Z,19.78
2022-09-15T01:50:38.139Z,19.73
2022-09-15T01:53:24.134Z,19.64
2022-09-15T01:56:18.847Z,19.68
2022-09-15T01:59:00.769Z,19.75
2022-09-15T02:01:57.472Z,19.79
2022-09-15T02:05:00.532Z,20.07
2022-09-15T02:08:11.931Z,20.01
2022-09-15T02:11:06.838Z,19.91
2022-09-15T02:14:20.934Z,19.83
2022-09-15T02:17:05.172Z,19.95
2022-09-15T02:20:04.871Z,19.92
2022-09-15T02:22:48.023Z,19.94
2022-09-15T02:25:41.068Z,20.04
2022-09-15T02:28:25.831Z,20.08
2022-09-15T02:31:18.951Z,20.04
2022-09-15T02:34:09.784Z,20.04
2022-09-15T02:37:00.718Z,20.10
2022-09-15T02:39:46.828Z,20.09
2022-09-15T02:42:36.914Z,20.04
2022-09-15T02:45:18.661Z,20.08
2022-09-15T02:48:06.025Z,19.96
2022-09-15T02:50:48.190Z,19.90
2022-09-15T02:53:36.779Z,19.94
2022-09-15T02:56:17.840Z,19.97
2022-09-15T02:59:06.610Z,19.96
2022-09-15T03:01:48.858Z,20.10
2022-09-15T03:04:35.894Z,20.12
2022-09-15T03:07:16.793Z,20.05
2022-09-15T03:10:05.943Z,20.02
2022-09-15T03:12:54.790Z,19.92
2022-09-15T03:15:41.916Z,19.97
2022-09-15T03:18:22.818Z,19.98
2022-09-15T03:21:13.349Z,20.05
2022-09-15T03:23:54.641Z,19.95
2022-09-15T03:26:41.928Z,19.93
2022-09-15T03:29:23.433Z,20.02
2022-09-15T03:32:10.967Z,20.07
2022-09-15T03:34:54.192Z,19.99
2022-09-15T03:37:46.958Z,19.97
2022-09-15T03:40:28.257Z,20.17
2022-09-15T03:43:18.953Z,20.06
2022-09-15T03:46:02.202Z,19.99
2022-09-15T03:48:48.950Z,19.96
2022-09-15T03:51:30.423Z,19.98
2022-09-15T03:54:18.684Z,20.14
2022-09-15T03:56:59.841Z,19.95
2022-09-15T03:59:46.944Z,19.96
2022-09-15T04:02:29.352Z,19.96
2022-09-15T04:05:18.473Z,19.89
2022-09-15T04:07:59.617Z,20.10
2022-09-15T04:10:48.320Z,20.04
2022-09-15T04:13:42.919Z,19.90
2022-09-15T04:16:34.077Z,19.94
2022-09-15T04:19:15.942Z,19.88
2022-09-15T04:22:04.006Z,19.84
2022-09-15T04:24:45.150Z,20.08
2022-09-15T04:27:36.495Z,20.05
2022-09-15T04:30:19.590Z,19.88
2022-09-15T04:33:05.975Z,19.99
2022-09-15T04:35:49.108Z,19.97
2022-09-15T04:38:37.008Z,19.88
2022-09-15T04:41:19.240Z,19.81
2022-09-15T04:44:05.988Z,19.80
2022-09-15T04:46:46.928Z,19.82
2022-09-15T04:49:35.351Z,19.84
2022-09-15T04:52:15.854Z,19.91
2022-09-15T04:55:03.005Z,19.96
2022-09-15T04:57:47.280Z,19.96
2022-09-15T05:00:43.746Z,19.96
2022-09-15T05:03:25.866Z,19.68
2022-09-15T05:06:15.004Z,19.85
2022-09-15T05:08:57.272Z,19.70
2022-09-15T05:11:45.938Z,19.74
2022-09-15T05:14:41.661Z,19.78
2022-09-15T05:17:30.007Z,19.74
2022-09-15T05:20:11.999Z,19.58
2022-09-15T05:23:02.154Z,19.55
2022-09-15T05:25:44.046Z,19.63
2022-09-15T05:28:32.055Z,19.61
2022-09-15T05:31:20.275Z,19.74
2022-09-15T05:34:11.482Z,19.75
2022-09-15T05:36:53.871Z,19.61
2022-09-15T05:39:42.078Z,19.65
2022-09-15T05:42:23.883Z,19.63
2022-09-15T05:45:12.427Z,19.54
2022-09-15T05:47:53.661Z,19.42
2022-09-15T05:50:42.017Z,19.31
2022-09-15T05:53:23.736Z,19.22
2022-09-15T05:56:17.157Z,19.20
2022-09-15T05:58:57.918Z,19.07
2022-09-15T06:01:45.389Z,19.13
2022-09-15T06:04:26.675Z,19.03
2022-09-15T06:07:29.942Z,19.08
2022-09-15T06:10:17.929Z,19.12
2022-09-15T06:13:00.092Z,19.14
2022-09-15T06:15:47.998Z,19.19
2022-09-15T06:18:30.163Z,19.25
2022-09-15T06:21:21.290Z,19.18
2022-09-15T06:24:04.570Z,19.72
2022-09-15T06:26:50.944Z,20.78
2022-09-15T06:29:32.866Z,21.35
2022-09-15T06:32:21.981Z,21.38
2022-09-15T06:35:07.439Z,21.18
2022-09-15T06:37:55.359Z,20.84
2022-09-15T06:40:40.260Z,20.68
2022-09-15T06:43:29.696Z,20.67
2022-09-15T06:46:13.188Z,20.72
2022-09-15T06:49:00.227Z,20.94
2022-09-15T06:51:42.159Z,21.59
2022-09-15T06:54:30.926Z,22.34
2022-09-15T06:57:12.093Z,22.76
2022-09-15T07:00:00.734Z,22.74
2022-09-15T07:02:42.184Z,22.42
2022-09-15T07:05:32.686Z,22.00
2022-09-15T07:08:13.076Z,21.69
2022-09-15T07:11:03.476Z,21.50
2022-09-15T07:13:56.961Z,21.37
2022-09-15T07:16:45.485Z,21.30
2022-09-15T07:19:26.081Z,21.15
2022-09-15T07:22:14.537Z,21.20
2022-09-15T07:24:55.147Z,21.08
2022-09-15T07:27:45.023Z,20.81
2022-09-15T07:30:26.104Z,20.63
2022-09-15T07:33:14.722Z,20.52
2022-09-15T07:35:57.283Z,20.57
2022-09-15T07:38:47.987Z,20.74
2022-09-15T07:41:31.064Z,21.70
2022-09-15T07:44:20.735Z,22.88
2022-09-15T07:47:02.169Z,23.93
2022-09-15T07:49:51.131Z,24.64
2022-09-15T07:52:32.275Z,24.90
2022-09-15T07:55:19.433Z,24.84
2022-09-15T07:58:07.147Z,24.68
2022-09-15T08:00:56.453Z,24.47
2022-09-15T08:03:37.080Z,24.36
2022-09-15T08:06:28.797Z,24.36
2022-09-15T08:09:14.851Z,24.54
2022-09-15T08:12:04.971Z,25.03
2022-09-15T08:14:53.121Z,25.47
2022-09-15T08:17:35.010Z,25.43
2022-09-15T08:20:23.132Z,25.26
2022-09-15T08:23:05.748Z,25.17
2022-09-15T08:25:54.152Z,24.99
2022-09-15T08:28:35.067Z,24.40
2022-09-15T08:31:25.146Z,24.01
2022-09-15T08:34:10.031Z,23.84
2022-09-15T08:36:59.119Z,23.87
2022-09-15T08:39:40.065Z,23.87
2022-09-15T08:42:30.635Z,23.75
2022-09-15T08:45:22.031Z,24.19
2022-09-15T08:48:15.803Z,25.07
2022-09-15T08:51:01.478Z,25.98
2022-09-15T08:54:01.621Z,26.89
2022-09-15T08:59:57.517Z,28.45
2022-09-15T09:02:44.141Z,28.78
2022-09-15T09:05:57.508Z,28.52
2022-09-15T09:09:06.751Z,28.14
2022-09-15T09:12:15.624Z,27.49
2022-09-15T09:15:29.111Z,26.65
2022-09-15T09:18:29.460Z,25.95
2022-09-15T09:21:22.367Z,25.35
2022-09-15T09:24:14.271Z,25.63
2022-09-15T09:26:58.431Z,26.41
2022-09-15T09:29:56.543Z,26.99
2022-09-15T09:32:52.047Z,26.71
2022-09-15T09:35:52.364Z,26.33
2022-09-15T09:38:42.034Z,26.14
2022-09-15T09:41:36.453Z,26.51
2022-09-15T09:44:19.033Z,26.79
2022-09-15T09:47:09.163Z,27.19
2022-09-15T09:49:56.417Z,27.57
2022-09-15T09:52:46.755Z,27.87
2022-09-15T09:55:33.279Z,28.04
2022-09-15T09:58:26.211Z,28.28
2022-09-15T10:01:17.144Z,28.43
2022-09-15T10:04:29.611Z,28.41
2022-09-15T10:07:12.192Z,28.25
2022-09-15T10:10:06.190Z,27.91
2022-09-15T10:12:48.297Z,27.51
2022-09-15T10:15:38.592Z,26.93
2022-09-15T10:18:42.695Z,26.48
2022-09-15T10:21:32.185Z,26.13
2022-09-15T10:24:40.079Z,25.87
2022-09-15T10:27:33.682Z,25.69
2022-09-15T10:30:20.536Z,25.57
2022-09-15T10:33:44.927Z,25.51
2022-09-15T10:36:35.141Z,25.62
2022-09-15T10:39:39.387Z,26.13
2022-09-15T10:42:31.510Z,26.43
2022-09-15T10:45:31.241Z,26.67
2022-09-15T10:48:18.069Z,26.51
2022-09-15T10:51:31.111Z,26.02
2022-09-15T10:54:41.833Z,25.85
2022-09-15T10:57:50.215Z,25.66
2022-09-15T11:00:35.171Z,25.56
2022-09-15T11:03:42.168Z,25.78
2022-09-15T11:06:26.840Z,26.21
2022-09-15T11:09:31.193Z,26.75
2022-09-15T11:12:28.902Z,27.42
2022-09-15T11:15:40.392Z,28.01
2022-09-15T11:18:51.121Z,27.91
2022-09-15T11:21:46.681Z,27.32
2022-09-15T11:24:50.221Z,26.17
2022-09-15T11:27:48.985Z,25.47
2022-09-15T11:30:32.871Z,25.07
2022-09-15T11:33:31.241Z,24.74
2022-09-15T11:36:27.170Z,24.62
2022-09-15T11:39:29.503Z,24.79
2022-09-15T11:42:24.124Z,25.33
2022-09-15T11:45:33.210Z,25.58
2022-09-15T11:48:42.165Z,25.29
2022-09-15T11:51:31.370Z,25.07
2022-09-15T11:54:24.173Z,24.81
2022-09-15T11:57:13.273Z,24.62
2022-09-15T12:00:16.489Z,24.58
2022-09-15T12:03:10.997Z,24.69
2022-09-15T12:06:00.630Z,25.07
2022-09-15T12:08:57.230Z,25.18
2022-09-15T12:11:43.129Z,25.36
2022-09-15T12:14:48.114Z,25.20
2022-09-15T12:17:46.883Z,24.96
2022-09-15T12:21:06.257Z,24.62
2022-09-15T12:24:03.190Z,24.29
2022-09-15T12:26:52.903Z,24.15
2022-09-15T12:29:51.555Z,24.12
2022-09-15T12:32:35.036Z,24.29
2022-09-15T12:35:26.973Z,24.06
2022-09-15T12:38:08.642Z,23.91
2022-09-15T12:41:07.655Z,23.85
2022-09-15T12:44:02.488Z,23.97
2022-09-15T12:46:59.283Z,24.07
2022-09-15T12:49:53.696Z,24.17
2022-09-15T12:52:55.153Z,24.26
2022-09-15T12:55:43.280Z,24.56
2022-09-15T12:58:44.644Z,24.36
2022-09-15T13:01:27.483Z,24.22
2022-09-15T13:04:19.368Z,24.21
2022-09-15T13:07:23.333Z,24.24
2022-09-15T13:10:13.241Z,24.34
2022-09-15T13:13:08.296Z,24.51
2022-09-15T13:16:14.004Z,24.76
2022-09-15T13:19:19.350Z,24.68
2022-09-15T13:22:18.195Z,24.51
2022-09-15T13:25:08.690Z,24.32
2022-09-15T13:27:59.575Z,24.19
2022-09-15T13:31:04.344Z,24.13
2022-09-15T13:38:16.832Z,23.76
2022-09-15T13:41:30.204Z,23.71
2022-09-15T13:44:54.996Z,23.76
2022-09-15T13:48:09.426Z,23.93
2022-09-15T13:51:06.094Z,24.03
2022-09-15T13:53:53.385Z,23.96
2022-09-15T13:56:47.590Z,24.01
2022-09-15T13:59:36.215Z,23.86
2022-09-15T14:02:26.487Z,23.82
2022-09-15T14:05:07.583Z,23.61
2022-09-15T14:08:04.351Z,23.51
2022-09-15T14:10:57.948Z,23.35
2022-09-15T14:13:52.280Z,23.15
2022-09-15T14:16:51.217Z,23.16
2022-09-15T14:19:44.344Z,23.36
2022-09-15T14:22:35.192Z,23.56
2022-09-15T14:25:23.409Z,23.56
2022-09-15T14:28:04.231Z,23.43
2022-09-15T14:30:58.402Z,23.03
2022-09-15T14:33:46.616Z,22.90
2022-09-15T14:36:40.703Z,23.02
2022-09-15T14:39:28.632Z,23.15
2022-09-15T14:42:29.675Z,23.24
2022-09-15T14:48:28.056Z,23.40
2022-09-15T14:51:17.279Z,23.22
2022-09-15T14:54:07.399Z,22.86
2022-09-15T14:56:52.202Z,22.83
2022-09-15T14:59:56.508Z,22.83
2022-09-15T15:02:56.428Z,22.52
2022-09-15T15:05:48.378Z,22.31
2022-09-15T15:08:49.231Z,22.34
2022-09-15T15:11:39.850Z,22.36
2022-09-15T15:17:33.490Z,22.18
2022-09-15T15:20:15.233Z,22.12
2022-09-15T15:23:25.948Z,21.99
2022-09-15T15:26:41.262Z,21.91
2022-09-15T15:29:53.373Z,21.77
2022-09-15T15:32:34.251Z,21.93
2022-09-15T15:35:30.715Z,22.05
2022-09-15T15:38:11.272Z,22.25
2022-09-15T15:41:08.450Z,22.41
2022-09-15T15:44:01.656Z,22.38
2022-09-15T15:47:00.444Z,22.21
2022-09-15T15:50:02.313Z,21.84
2022-09-15T15:52:49.575Z,21.66
2022-09-15T15:55:37.815Z,21.49
2022-09-15T15:58:28.061Z,21.31
2022-09-15T16:01:09.304Z,21.25
2022-09-15T16:03:56.546Z,21.21
2022-09-15T16:06:37.974Z,21.15
2022-09-15T16:09:32.782Z,21.16
2022-09-15T16:12:16.571Z,21.21
2022-09-15T16:15:10.247Z,21.13
2022-09-15T16:17:57.696Z,21.20
2022-09-15T16:20:39.191Z,21.34
2022-09-15T16:23:34.553Z,21.50
2022-09-15T16:26:18.387Z,21.56
2022-09-15T16:29:05.286Z,21.56
2022-09-15T16:31:47.156Z,21.43
2022-09-15T16:34:35.281Z,21.57
2022-09-15T16:37:17.514Z,21.56
2022-09-15T16:40:06.371Z,21.64
2022-09-15T16:42:50.980Z,21.70
2022-09-15T16:45:45.284Z,21.67
2022-09-15T16:48:27.368Z,21.72
2022-09-15T16:51:29.803Z,21.81
2022-09-15T16:54:22.952Z,21.66
2022-09-15T16:57:11.480Z,21.38
2022-09-15T16:59:52.412Z,21.32
2022-09-15T17:02:41.977Z,21.21
2022-09-15T17:05:35.541Z,21.15
2022-09-15T17:08:24.305Z,21.05
2022-09-15T17:11:08.409Z,20.92
2022-09-15T17:13:56.321Z,20.67
2022-09-15T17:16:47.406Z,20.58
2022-09-15T17:19:28.332Z,20.50
2022-09-15T17:22:16.456Z,20.38
2022-09-15T17:24:57.362Z,20.29
2022-09-15T17:27:46.505Z,20.28
2022-09-15T17:30:29.326Z,20.31
2022-09-15T17:33:20.477Z,20.26
2022-09-15T17:36:04.852Z,20.29
2022-09-15T17:38:51.520Z,20.15
2022-09-15T17:41:32.358Z,20.04
2022-09-15T17:44:19.787Z,19.88
2022-09-15T17:47:00.318Z,19.85
2022-09-15T17:49:47.502Z,19.88
2022-09-15T17:52:30.307Z,19.88
2022-09-15T17:55:35.466Z,19.85
2022-09-15T17:58:18.780Z,19.58
2022-09-15T18:01:07.153Z,19.51
2022-09-15T18:03:50.721Z,19.48
2022-09-15T18:06:44.747Z,19.55
2022-09-15T18:09:26.706Z,19.53
2022-09-15T18:12:15.074Z,19.54
2022-09-15T18:15:09.130Z,19.33
2022-09-15T18:18:03.799Z,19.32
2022-09-15T18:20:45.369Z,19.28
2022-09-15T18:23:35.240Z,19.22
2022-09-15T18:26:17.225Z,19.16
2022-09-15T18:29:06.492Z,19.12
2022-09-15T18:31:48.839Z,19.16
2022-09-15T18:34:39.015Z,19.04
2022-09-15T18:37:19.363Z,18.95
2022-09-15T18:40:08.925Z,18.79
2022-09-15T18:42:52.990Z,18.72
2022-09-15T18:45:42.503Z,18.68
2022-09-15T18:48:24.747Z,18.61
2022-09-15T18:51:24.143Z,18.49
2022-09-15T18:54:10.385Z,18.53
2022-09-15T18:56:59.348Z,18.53
2022-09-15T18:59:40.511Z,18.47
2022-09-15T19:02:29.641Z,18.47
2022-09-15T19:05:10.975Z,18.57
2022-09-15T19:07:58.493Z,18.50
2022-09-15T19:10:41.493Z,18.76
2022-09-15T19:13:28.999Z,18.65
2022-09-15T19:16:34.504Z,18.71
2022-09-15T19:19:33.727Z,18.50
2022-09-15T19:22:14.367Z,18.39
2022-09-15T19:25:03.552Z,18.35
2022-09-15T19:27:48.083Z,18.40
2022-09-15T19:30:35.001Z,18.26
2022-09-15T19:36:29.044Z,18.15
2022-09-15T19:39:10.438Z,18.22
2022-09-15T19:41:58.684Z,18.21
2022-09-15T19:44:40.397Z,18.12
2022-09-15T19:47:28.497Z,18.20
2022-09-15T19:50:15.392Z,18.02
2022-09-15T19:53:02.851Z,18.12
2022-09-15T19:55:43.402Z,18.03
2022-09-15T19:58:30.507Z,18.05
2022-09-15T20:01:11.864Z,18.14
2022-09-15T20:04:02.032Z,17.77
2022-09-15T20:06:44.907Z,17.68
2022-09-15T20:09:32.670Z,17.63
2022-09-15T20:12:14.461Z,17.58
2022-09-15T20:15:01.981Z,17.57
2022-09-15T20:17:48.415Z,17.73
2022-09-15T20:20:30.271Z,17.69
2022-09-15T20:23:19.596Z,17.62
2022-09-15T20:26:07.844Z,17.62
2022-09-15T20:28:57.398Z,17.50
2022-09-15T20:31:38.535Z,17.54
2022-09-15T20:34:25.418Z,17.51
2022-09-15T20:37:07.991Z,17.38
2022-09-15T20:39:55.530Z,17.33
2022-09-15T20:42:36.800Z,17.32
2022-09-15T20:45:37.230Z,17.41
2022-09-15T20:48:24.550Z,17.33
2022-09-15T20:51:14.451Z,17.25
2022-09-15T20:54:04.121Z,17.20
2022-09-15T20:56:46.222Z,17.12
2022-09-15T20:59:35.192Z,17.24
2022-09-15T21:02:19.001Z,17.26
2022-09-15T21:05:06.789Z,17.25
2022-09-15T21:07:50.425Z,17.29
2022-09-15T21:10:39.945Z,17.20
2022-09-15T21:13:20.568Z,17.23
2022-09-15T21:16:15.668Z,17.20
2022-09-15T21:19:04.499Z,17.12
2022-09-15T21:21:46.602Z,16.99
2022-09-15T21:24:35.899Z,16.92
2022-09-15T21:27:27.073Z,16.93
2022-09-15T21:30:13.820Z,16.87
2022-09-15T21:32:56.470Z,16.92
2022-09-15T21:35:43.512Z,16.80
2022-09-15T21:38:25.708Z,16.75
2022-09-15T21:41:14.831Z,16.79
2022-09-15T21:43:58.382Z,16.79
2022-09-15T21:46:47.450Z,16.77
2022-09-15T21:49:28.607Z,16.78
2022-09-15T21:52:17.579Z,16.77
2022-09-15T21:55:00.456Z,16.78
2022-09-15T21:57:49.479Z,16.80
2022-09-15T22:00:30.715Z,16.79
2022-09-15T22:03:17.981Z,16.73
2022-09-15T22:05:59.407Z,16.68
2022-09-15T22:08:47.532Z,16.68
2022-09-15T22:11:29.620Z,16.77
2022-09-15T22:14:18.889Z,16.77
2022-09-15T22:17:10.045Z,16.83
2022-09-15T22:19:50.478Z,16.83
2022-09-15T22:22:38.589Z,16.79
2022-09-15T22:25:21.876Z,16.74
2022-09-15T22:28:10.006Z,16.72
2022-09-15T22:30:50.531Z,16.69
2022-09-15T22:33:43.776Z,16.62
2022-09-15T22:36:29.562Z,16.54
2022-09-15T22:39:18.945Z,16.46
2022-09-15T22:41:59.887Z,16.44
2022-09-15T22:44:47.133Z,16.46
2022-09-15T22:47:28.528Z,16.42
2022-09-15T22:50:16.780Z,16.42
2022-09-15T22:52:58.585Z,16.38
2022-09-15T22:55:46.831Z,16.44
2022-09-15T22:58:28.493Z,16.40
2022-09-15T23:01:22.146Z,16.40
2022-09-15T23:04:05.880Z,16.45
2022-09-15T23:06:53.639Z,16.39
2022-09-15T23:09:34.506Z,16.39
2022-09-15T23:12:22.152Z,16.40
2022-09-15T23:15:03.540Z,16.48
2022-09-15T23:17:52.685Z,16.46
2022-09-15T23:20:35.024Z,16.37
2022-09-15T23:23:23.268Z,16.32
2022-09-15T23:26:04.540Z,16.24
2022-09-15T23:28:51.626Z,16.22
2022-09-15T23:31:38.245Z,16.12
2022-09-15T23:34:26.429Z,16.11
2022-09-15T23:37:07.511Z,16.08
2022-09-15T23:39:55.951Z,16.01
2022-09-15T23:42:38.291Z,15.99
2022-09-15T23:45:27.152Z,15.97
2022-09-15T23:48:08.567Z,15.93
2022-09-15T23:50:56.633Z,16.01
2022-09-15T23:53:37.934Z,15.90
2022-09-15T23:56:25.071Z,15.83
2022-09-15T23:59:05.552Z,15.81
